sensor_id;sensor_type;location;lat;lon;timestamp;pressure;altitude;pressure_sealevel;temperature;humidity
72640;BME280;60683;51.730;8.762;2023-12-14T00:00:05;99403.44;;;5.84;100.00
72640;BME280;60683;51.730;8.762;2023-12-14T00:02:33;99410.16;;;5.93;100.00
72640;BME280;60683;51.730;8.762;2023-12-14T00:05:00;99422.28;;;5.89;100.00
72640;BME280;60683;51.730;8.762;2023-12-14T00:07:29;99422.69;;;5.86;100.00
72640;BME280;60683;51.730;8.762;2023-12-14T00:09:57;99429.25;;;5.90;100.00
72640;BME280;60683;51.730;8.762;2023-12-14T00:12:23;99436.47;;;5.83;100.00
72640;BME280;60683;51.730;8.762;2023-12-14T00:14:50;99438.53;;;5.81;100.00
72640;BME280;60683;51.730;8.762;2023-12-14T00:17:18;99442.25;;;5.80;100.00
72640;BME280;60683;51.730;8.762;2023-12-14T00:19:44;99447.53;;;5.86;100.00
72640;BME280;60683;51.730;8.762;2023-12-14T00:22:11;99447.56;;;5.80;100.00
72640;BME280;60683;51.730;8.762;2023-12-14T00:24:40;99462.97;;;5.78;100.00
72640;BME280;60683;51.730;8.762;2023-12-14T00:27:07;99461.78;;;5.74;100.00
72640;BME280;60683;51.730;8.762;2023-12-14T00:29:34;99464.31;;;5.69;100.00
72640;BME280;60683;51.730;8.762;2023-12-14T00:32:01;99470.69;;;5.68;100.00
72640;BME280;60683;51.730;8.762;2023-12-14T00:34:28;99474.00;;;5.63;100.00
72640;BME280;60683;51.730;8.762;2023-12-14T00:36:54;99477.31;;;5.58;100.00
72640;BME280;60683;51.730;8.762;2023-12-14T00:39:21;99478.19;;;5.52;100.00
72640;BME280;60683;51.730;8.762;2023-12-14T00:41:49;99482.47;;;5.53;100.00
72640;BME280;60683;51.730;8.762;2023-12-14T00:44:17;99483.50;;;5.52;100.00
72640;BME280;60683;51.730;8.762;2023-12-14T00:46:44;99491.25;;;5.60;100.00
72640;BME280;60683;51.730;8.762;2023-12-14T00:49:11;99493.97;;;5.54;100.00
72640;BME280;60683;51.730;8.762;2023-12-14T00:51:38;99495.97;;;5.58;100.00
72640;BME280;60683;51.730;8.762;2023-12-14T00:54:06;99502.56;;;5.56;100.00
72640;BME280;60683;51.730;8.762;2023-12-14T00:56:32;99508.31;;;5.53;100.00
72640;BME280;60683;51.730;8.762;2023-12-14T00:59:01;99516.97;;;5.48;100.00
72640;BME280;60683;51.730;8.762;2023-12-14T01:01:28;99511.63;;;5.48;100.00
72640;BME280;60683;51.730;8.762;2023-12-14T01:03:55;99515.94;;;5.49;100.00
72640;BME280;60683;51.730;8.762;2023-12-14T01:06:21;99515.75;;;5.44;100.00
72640;BME280;60683;51.730;8.762;2023-12-14T01:08:49;99523.31;;;5.47;100.00
72640;BME280;60683;51.730;8.762;2023-12-14T01:11:15;99525.19;;;5.47;100.00
72640;BME280;60683;51.730;8.762;2023-12-14T01:13:43;99539.75;;;5.44;100.00
72640;BME280;60683;51.730;8.762;2023-12-14T01:16:11;99546.28;;;5.48;100.00
72640;BME280;60683;51.730;8.762;2023-12-14T01:18:39;99544.66;;;5.47;100.00
72640;BME280;60683;51.730;8.762;2023-12-14T01:21:06;99547.75;;;5.44;100.00
72640;BME280;60683;51.730;8.762;2023-12-14T01:23:33;99549.81;;;5.42;100.00
72640;BME280;60683;51.730;8.762;2023-12-14T01:26:00;99557.41;;;5.39;100.00
72640;BME280;60683;51.730;8.762;2023-12-14T01:28:27;99561.72;;;5.40;100.00
72640;BME280;60683;51.730;8.762;2023-12-14T01:30:54;99561.31;;;5.36;100.00
72640;BME280;60683;51.730;8.762;2023-12-14T01:33:24;99578.34;;;5.35;100.00
72640;BME280;60683;51.730;8.762;2023-12-14T01:35:51;99579.97;;;5.36;100.00
72640;BME280;60683;51.730;8.762;2023-12-14T01:38:18;99583.06;;;5.33;100.00
72640;BME280;60683;51.730;8.762;2023-12-14T01:40:45;99583.50;;;5.30;100.00
72640;BME280;60683;51.730;8.762;2023-12-14T01:43:12;99588.00;;;5.29;100.00
72640;BME280;60683;51.730;8.762;2023-12-14T01:45:39;99580.81;;;5.30;100.00
72640;BME280;60683;51.730;8.762;2023-12-14T01:48:06;99583.91;;;5.27;100.00
72640;BME280;60683;51.730;8.762;2023-12-14T01:50:34;99580.84;;;5.23;100.00
72640;BME280;60683;51.730;8.762;2023-12-14T01:53:02;99588.84;;;5.23;100.00
72640;BME280;60683;51.730;8.762;2023-12-14T01:55:29;99591.31;;;5.25;100.00
72640;BME280;60683;51.730;8.762;2023-12-14T01:57:56;99597.66;;;5.24;100.00
72640;BME280;60683;51.730;8.762;2023-12-14T02:00:30;99600.94;;;5.26;100.00
72640;BME280;60683;51.730;8.762;2023-12-14T02:03:02;99615.13;;;5.20;100.00
72640;BME280;60683;51.730;8.762;2023-12-14T02:05:29;99619.19;;;5.22;100.00
72640;BME280;60683;51.730;8.762;2023-12-14T02:07:57;99624.31;;;5.24;100.00
72640;BME280;60683;51.730;8.762;2023-12-14T02:10:24;99625.94;;;5.25;100.00
72640;BME280;60683;51.730;8.762;2023-12-14T02:12:51;99627.66;;;5.13;100.00
72640;BME280;60683;51.730;8.762;2023-12-14T02:15:18;99643.03;;;5.11;100.00
72640;BME280;60683;51.730;8.762;2023-12-14T02:17:45;99646.53;;;5.05;100.00
72640;BME280;60683;51.730;8.762;2023-12-14T02:20:12;99655.34;;;4.98;100.00
72640;BME280;60683;51.730;8.762;2023-12-14T02:22:49;99668.47;;;4.93;100.00
72640;BME280;60683;51.730;8.762;2023-12-14T02:25:17;99673.38;;;4.96;100.00
72640;BME280;60683;51.730;8.762;2023-12-14T02:27:44;99671.13;;;4.93;100.00
72640;BME280;60683;51.730;8.762;2023-12-14T02:30:12;99673.41;;;4.83;100.00
72640;BME280;60683;51.730;8.762;2023-12-14T02:32:39;99680.16;;;4.79;100.00
72640;BME280;60683;51.730;8.762;2023-12-14T02:35:07;99682.44;;;4.82;100.00
72640;BME280;60683;51.730;8.762;2023-12-14T02:37:35;99692.06;;;4.77;100.00
72640;BME280;60683;51.730;8.762;2023-12-14T02:40:06;99687.75;;;4.76;100.00
72640;BME280;60683;51.730;8.762;2023-12-14T02:42:33;99700.25;;;4.69;100.00
72640;BME280;60683;51.730;8.762;2023-12-14T02:45:00;99704.16;;;4.66;100.00
72640;BME280;60683;51.730;8.762;2023-12-14T02:47:27;99713.59;;;4.62;100.00
72640;BME280;60683;51.730;8.762;2023-12-14T02:49:53;99709.09;;;4.56;100.00
72640;BME280;60683;51.730;8.762;2023-12-14T02:52:20;99717.47;;;4.53;100.00
72640;BME280;60683;51.730;8.762;2023-12-14T02:54:47;99717.88;;;4.50;100.00
72640;BME280;60683;51.730;8.762;2023-12-14T02:57:16;99721.34;;;4.44;100.00
72640;BME280;60683;51.730;8.762;2023-12-14T02:59:43;99726.50;;;4.52;100.00
72640;BME280;60683;51.730;8.762;2023-12-14T03:02:10;99723.19;;;4.43;100.00
72640;BME280;60683;51.730;8.762;2023-12-14T03:04:37;99732.00;;;4.44;100.00
72640;BME280;60683;51.730;8.762;2023-12-14T03:07:04;99734.66;;;4.44;100.00
72640;BME280;60683;51.730;8.762;2023-12-14T03:09:31;99738.53;;;4.35;100.00
72640;BME280;60683;51.730;8.762;2023-12-14T03:11:59;99735.06;;;4.34;100.00
72640;BME280;60683;51.730;8.762;2023-12-14T03:14:31;99739.78;;;4.39;100.00
72640;BME280;60683;51.730;8.762;2023-12-14T03:16:59;99743.25;;;4.39;100.00
72640;BME280;60683;51.730;8.762;2023-12-14T03:19:27;99747.75;;;4.32;100.00
72640;BME280;60683;51.730;8.762;2023-12-14T03:21:54;99752.22;;;4.25;100.00
72640;BME280;60683;51.730;8.762;2023-12-14T03:24:21;99758.16;;;4.27;100.00
72640;BME280;60683;51.730;8.762;2023-12-14T03:26:48;99762.03;;;4.18;100.00
72640;BME280;60683;51.730;8.762;2023-12-14T03:29:16;99768.78;;;4.20;100.00
72640;BME280;60683;51.730;8.762;2023-12-14T03:31:45;99776.34;;;4.17;100.00
72640;BME280;60683;51.730;8.762;2023-12-14T03:34:12;99778.00;;;4.11;100.00
72640;BME280;60683;51.730;8.762;2023-12-14T03:36:39;99784.53;;;4.09;100.00
72640;BME280;60683;51.730;8.762;2023-12-14T03:39:06;99786.19;;;4.10;100.00
72640;BME280;60683;51.730;8.762;2023-12-14T03:41:32;99787.00;;;4.17;100.00
72640;BME280;60683;51.730;8.762;2023-12-14T03:43:59;99791.91;;;4.07;100.00
72640;BME280;60683;51.730;8.762;2023-12-14T03:46:26;99791.91;;;4.07;100.00
72640;BME280;60683;51.730;8.762;2023-12-14T03:48:55;99798.44;;;4.04;100.00
72640;BME280;60683;51.730;8.762;2023-12-14T03:51:22;99802.94;;;4.04;100.00
72640;BME280;60683;51.730;8.762;2023-12-14T03:53:49;99801.31;;;4.03;100.00
72640;BME280;60683;51.730;8.762;2023-12-14T03:56:16;99801.13;;;4.11;100.00
72640;BME280;60683;51.730;8.762;2023-12-14T03:58:43;99810.56;;;4.13;100.00
72640;BME280;60683;51.730;8.762;2023-12-14T04:01:16;99809.94;;;4.11;100.00
72640;BME280;60683;51.730;8.762;2023-12-14T04:03:43;99822.59;;;4.09;100.00
72640;BME280;60683;51.730;8.762;2023-12-14T04:06:12;99829.13;;;4.00;100.00
72640;BME280;60683;51.730;8.762;2023-12-14T04:08:40;99833.81;;;3.98;100.00
72640;BME280;60683;51.730;8.762;2023-12-14T04:11:07;99840.97;;;3.97;100.00
72640;BME280;60683;51.730;8.762;2023-12-14T04:13:34;99850.31;;;3.87;100.00
72640;BME280;60683;51.730;8.762;2023-12-14T04:16:02;99852.16;;;3.86;100.00
72640;BME280;60683;51.730;8.762;2023-12-14T04:18:29;99861.34;;;3.84;100.00
72640;BME280;60683;51.730;8.762;2023-12-14T04:20:57;99866.03;;;3.82;100.00
72640;BME280;60683;51.730;8.762;2023-12-14T04:23:25;99869.91;;;3.79;100.00
72640;BME280;60683;51.730;8.762;2023-12-14T04:25:52;99871.31;;;3.75;100.00
72640;BME280;60683;51.730;8.762;2023-12-14T04:28:19;99873.53;;;3.72;100.00
72640;BME280;60683;51.730;8.762;2023-12-14T04:30:46;99878.66;;;3.73;100.00
72640;BME280;60683;51.730;8.762;2023-12-14T04:33:13;99883.53;;;3.70;100.00
72640;BME280;60683;51.730;8.762;2023-12-14T04:35:40;99880.25;;;3.67;100.00
72640;BME280;60683;51.730;8.762;2023-12-14T04:38:08;99890.94;;;3.74;100.00
72640;BME280;60683;51.730;8.762;2023-12-14T04:40:36;99894.00;;;3.71;100.00
72640;BME280;60683;51.730;8.762;2023-12-14T04:43:04;99897.66;;;3.63;100.00
72640;BME280;60683;51.730;8.762;2023-12-14T04:45:30;99900.13;;;3.72;100.00
72640;BME280;60683;51.730;8.762;2023-12-14T04:47:58;99904.56;;;3.64;100.00
72640;BME280;60683;51.730;8.762;2023-12-14T04:50:25;99909.25;;;3.56;100.00
72640;BME280;60683;51.730;8.762;2023-12-14T04:52:52;99914.38;;;3.57;100.00
72640;BME280;60683;51.730;8.762;2023-12-14T04:55:19;99918.84;;;3.57;100.00
72640;BME280;60683;51.730;8.762;2023-12-14T04:57:48;99915.56;;;3.55;100.00
72640;BME280;60683;51.730;8.762;2023-12-14T05:00:15;99917.47;;;3.61;100.00
72640;BME280;60683;51.730;8.762;2023-12-14T05:02:46;99926.25;;;3.61;100.00
72640;BME280;60683;51.730;8.762;2023-12-14T05:05:13;99933.63;;;3.66;100.00
72640;BME280;60683;51.730;8.762;2023-12-14T05:07:40;99936.47;;;3.64;100.00
72640;BME280;60683;51.730;8.762;2023-12-14T05:10:07;99944.88;;;3.61;100.00
72640;BME280;60683;51.730;8.762;2023-12-14T05:12:35;99949.34;;;3.61;100.00
72640;BME280;60683;51.730;8.762;2023-12-14T05:15:05;99962.66;;;3.61;100.00
72640;BME280;60683;51.730;8.762;2023-12-14T05:17:33;99960.50;;;3.50;100.00
72640;BME280;60683;51.730;8.762;2023-12-14T05:20:03;99959.13;;;3.54;100.00
72640;BME280;60683;51.730;8.762;2023-12-14T05:22:30;99965.25;;;3.54;100.00
72640;BME280;60683;51.730;8.762;2023-12-14T05:24:57;99966.66;;;3.50;100.00
72640;BME280;60683;51.730;8.762;2023-12-14T05:27:24;99975.25;;;3.52;100.00
72640;BME280;60683;51.730;8.762;2023-12-14T05:29:51;99978.09;;;3.51;100.00
72640;BME280;60683;51.730;8.762;2023-12-14T05:32:20;99980.56;;;3.52;100.00
72640;BME280;60683;51.730;8.762;2023-12-14T05:34:46;99977.91;;;3.52;100.00
72640;BME280;60683;51.730;8.762;2023-12-14T05:37:14;99973.97;;;3.48;100.00
72640;BME280;60683;51.730;8.762;2023-12-14T05:39:42;99979.50;;;3.47;100.00
72640;BME280;60683;51.730;8.762;2023-12-14T05:42:11;99992.59;;;3.48;100.00
72640;BME280;60683;51.730;8.762;2023-12-14T05:44:37;99994.44;;;3.48;100.00
72640;BME280;60683;51.730;8.762;2023-12-14T05:47:05;100002.59;;;3.46;100.00
72640;BME280;60683;51.730;8.762;2023-12-14T05:49:33;100012.00;;;3.49;100.00
72640;BME280;60683;51.730;8.762;2023-12-14T05:52:00;100019.34;;;3.47;100.00
72640;BME280;60683;51.730;8.762;2023-12-14T05:54:27;100016.25;;;3.43;100.00
72640;BME280;60683;51.730;8.762;2023-12-14T05:56:54;100027.50;;;3.45;100.00
72640;BME280;60683;51.730;8.762;2023-12-14T05:59:21;100029.53;;;3.43;100.00
72640;BME280;60683;51.730;8.762;2023-12-14T06:01:48;100033.16;;;3.57;100.00
72640;BME280;60683;51.730;8.762;2023-12-14T06:04:15;100029.66;;;3.56;100.00
72640;BME280;60683;51.730;8.762;2023-12-14T06:06:43;100035.75;;;3.50;100.00
72640;BME280;60683;51.730;8.762;2023-12-14T06:09:10;100038.41;;;3.50;100.00
72640;BME280;60683;51.730;8.762;2023-12-14T06:11:37;100046.00;;;3.53;100.00
72640;BME280;60683;51.730;8.762;2023-12-14T06:14:04;100046.38;;;3.50;100.00
72640;BME280;60683;51.730;8.762;2023-12-14T06:16:31;100045.94;;;3.47;100.00
72640;BME280;60683;51.730;8.762;2023-12-14T06:18:58;100044.28;;;3.46;100.00
72640;BME280;60683;51.730;8.762;2023-12-14T06:21:25;100056.09;;;3.43;100.00
72640;BME280;60683;51.730;8.762;2023-12-14T06:23:56;100061.44;;;3.43;100.00
72640;BME280;60683;51.730;8.762;2023-12-14T06:26:23;100083.06;;;3.40;100.00
72640;BME280;60683;51.730;8.762;2023-12-14T06:28:50;100087.09;;;3.36;100.00
72640;BME280;60683;51.730;8.762;2023-12-14T06:31:18;100090.13;;;3.33;100.00
72640;BME280;60683;51.730;8.762;2023-12-14T06:33:47;100084.56;;;3.28;100.00
72640;BME280;60683;51.730;8.762;2023-12-14T06:36:15;100085.38;;;3.28;100.00
72640;BME280;60683;51.730;8.762;2023-12-14T06:38:43;100091.50;;;3.29;100.00
72640;BME280;60683;51.730;8.762;2023-12-14T06:41:20;100096.19;;;3.27;100.00
72640;BME280;60683;51.730;8.762;2023-12-14T06:43:47;100099.31;;;3.30;100.00
72640;BME280;60683;51.730;8.762;2023-12-14T06:46:14;100106.06;;;3.33;100.00
72640;BME280;60683;51.730;8.762;2023-12-14T06:48:41;100105.81;;;3.28;100.00
72640;BME280;60683;51.730;8.762;2023-12-14T06:51:08;100109.09;;;3.30;100.00
72640;BME280;60683;51.730;8.762;2023-12-14T06:53:35;100113.41;;;3.31;100.00
72640;BME280;60683;51.730;8.762;2023-12-14T06:56:03;100115.69;;;3.34;100.00
72640;BME280;60683;51.730;8.762;2023-12-14T06:58:32;100123.94;;;3.39;100.00
72640;BME280;60683;51.730;8.762;2023-12-14T07:01:01;100127.78;;;3.37;100.00
72640;BME280;60683;51.730;8.762;2023-12-14T07:03:28;100136.94;;;3.34;100.00
72640;BME280;60683;51.730;8.762;2023-12-14T07:05:55;100143.28;;;3.33;100.00
72640;BME280;60683;51.730;8.762;2023-12-14T07:08:22;100138.41;;;3.37;100.00
72640;BME280;60683;51.730;8.762;2023-12-14T07:10:49;100147.22;;;3.37;100.00
72640;BME280;60683;51.730;8.762;2023-12-14T07:13:16;100143.66;;;3.30;100.00
72640;BME280;60683;51.730;8.762;2023-12-14T07:15:45;100151.97;;;3.27;100.00
72640;BME280;60683;51.730;8.762;2023-12-14T07:18:12;100153.63;;;3.28;100.00
72640;BME280;60683;51.730;8.762;2023-12-14T07:20:39;100167.75;;;3.28;100.00
72640;BME280;60683;51.730;8.762;2023-12-14T07:23:06;100170.22;;;3.30;100.00
72640;BME280;60683;51.730;8.762;2023-12-14T07:25:34;100172.41;;;3.26;100.00
72640;BME280;60683;51.730;8.762;2023-12-14T07:28:01;100176.81;;;3.19;100.00
72640;BME280;60683;51.730;8.762;2023-12-14T07:30:28;100177.00;;;3.18;100.00
72640;BME280;60683;51.730;8.762;2023-12-14T07:32:56;100191.19;;;3.25;100.00
72640;BME280;60683;51.730;8.762;2023-12-14T07:35:23;100210.81;;;3.24;100.00
72640;BME280;60683;51.730;8.762;2023-12-14T07:37:50;100215.94;;;3.25;100.00
72640;BME280;60683;51.730;8.762;2023-12-14T07:40:17;100217.66;;;3.18;100.00
72640;BME280;60683;51.730;8.762;2023-12-14T07:42:44;100225.81;;;3.17;100.00
72640;BME280;60683;51.730;8.762;2023-12-14T07:45:11;100230.31;;;3.16;100.00
72640;BME280;60683;51.730;8.762;2023-12-14T07:47:38;100236.63;;;3.15;100.00
72640;BME280;60683;51.730;8.762;2023-12-14T07:50:08;100249.19;;;3.21;100.00
72640;BME280;60683;51.730;8.762;2023-12-14T07:52:35;100250.19;;;3.20;100.00
72640;BME280;60683;51.730;8.762;2023-12-14T07:55:03;100254.03;;;3.18;100.00
72640;BME280;60683;51.730;8.762;2023-12-14T07:57:30;100254.22;;;3.16;100.00
72640;BME280;60683;51.730;8.762;2023-12-14T07:59:57;100258.06;;;3.14;100.00
72640;BME280;60683;51.730;8.762;2023-12-14T08:02:25;100258.88;;;3.14;100.00
72640;BME280;60683;51.730;8.762;2023-12-14T08:04:53;100267.03;;;3.13;100.00
72640;BME280;60683;51.730;8.762;2023-12-14T08:07:21;100260.91;;;3.12;100.00
72640;BME280;60683;51.730;8.762;2023-12-14T08:09:49;100267.44;;;3.10;100.00
72640;BME280;60683;51.730;8.762;2023-12-14T08:12:16;100272.81;;;3.16;100.00
72640;BME280;60683;51.730;8.762;2023-12-14T08:14:43;100286.09;;;3.16;100.00
72640;BME280;60683;51.730;8.762;2023-12-14T08:17:09;100281.88;;;3.22;100.00
72640;BME280;60683;51.730;8.762;2023-12-14T08:19:37;100283.19;;;3.26;100.00
72640;BME280;60683;51.730;8.762;2023-12-14T08:22:03;100293.69;;;3.19;100.00
72640;BME280;60683;51.730;8.762;2023-12-14T08:24:32;100310.81;;;3.17;100.00
72640;BME280;60683;51.730;8.762;2023-12-14T08:26:59;100312.41;;;3.11;100.00
72640;BME280;60683;51.730;8.762;2023-12-14T08:29:26;100326.75;;;3.17;100.00
72640;BME280;60683;51.730;8.762;2023-12-14T08:31:53;100336.66;;;3.08;100.00
72640;BME280;60683;51.730;8.762;2023-12-14T08:34:23;100336.19;;;3.05;100.00
72640;BME280;60683;51.730;8.762;2023-12-14T08:36:50;100339.22;;;3.02;100.00
72640;BME280;60683;51.730;8.762;2023-12-14T08:39:17;100344.44;;;3.10;100.00
72640;BME280;60683;51.730;8.762;2023-12-14T08:41:47;100343.63;;;3.09;100.00
72640;BME280;60683;51.730;8.762;2023-12-14T08:44:14;100362.22;;;3.09;100.00
72640;BME280;60683;51.730;8.762;2023-12-14T08:46:43;100359.56;;;3.09;100.00
72640;BME280;60683;51.730;8.762;2023-12-14T08:49:11;100368.78;;;3.13;100.00
72640;BME280;60683;51.730;8.762;2023-12-14T08:51:38;100371.28;;;3.15;100.00
72640;BME280;60683;51.730;8.762;2023-12-14T08:54:05;100370.38;;;3.08;100.00
72640;BME280;60683;51.730;8.762;2023-12-14T08:56:33;100388.59;;;3.11;100.00
72640;BME280;60683;51.730;8.762;2023-12-14T08:59:01;100384.56;;;3.15;100.00
72640;BME280;60683;51.730;8.762;2023-12-14T09:01:29;100394.28;;;3.08;100.00
72640;BME280;60683;51.730;8.762;2023-12-14T09:03:56;100393.19;;;3.17;100.00
72640;BME280;60683;51.730;8.762;2023-12-14T09:06:23;100400.50;;;3.15;100.00
72640;BME280;60683;51.730;8.762;2023-12-14T09:08:50;100406.09;;;3.20;100.00
72640;BME280;60683;51.730;8.762;2023-12-14T09:11:17;100401.97;;;3.17;100.00
72640;BME280;60683;51.730;8.762;2023-12-14T09:13:44;100401.97;;;3.17;100.00
72640;BME280;60683;51.730;8.762;2023-12-14T09:16:12;100412.13;;;3.14;100.00
72640;BME280;60683;51.730;8.762;2023-12-14T09:18:39;100408.28;;;3.16;100.00
72640;BME280;60683;51.730;8.762;2023-12-14T09:21:06;100420.75;;;3.16;100.00
72640;BME280;60683;51.730;8.762;2023-12-14T09:23:33;100424.53;;;3.21;100.00
72640;BME280;60683;51.730;8.762;2023-12-14T09:26:00;100427.81;;;3.23;100.00
72640;BME280;60683;51.730;8.762;2023-12-14T09:28:28;100433.38;;;3.14;100.00
72640;BME280;60683;51.730;8.762;2023-12-14T09:30:54;100444.38;;;3.11;100.00
72640;BME280;60683;51.730;8.762;2023-12-14T09:33:23;100444.00;;;3.14;100.00
72640;BME280;60683;51.730;8.762;2023-12-14T09:35:50;100443.28;;;3.20;100.00
72640;BME280;60683;51.730;8.762;2023-12-14T09:38:17;100432.19;;;3.16;100.00
72640;BME280;60683;51.730;8.762;2023-12-14T09:40:44;100443.28;;;3.20;100.00
72640;BME280;60683;51.730;8.762;2023-12-14T09:43:12;100446.13;;;3.18;100.00
72640;BME280;60683;51.730;8.762;2023-12-14T09:45:41;100449.91;;;3.24;100.00
72640;BME280;60683;51.730;8.762;2023-12-14T09:48:11;100458.06;;;3.22;100.00
72640;BME280;60683;51.730;8.762;2023-12-14T09:50:40;100458.34;;;3.27;100.00
72640;BME280;60683;51.730;8.762;2023-12-14T09:53:07;100461.72;;;3.21;100.00
72640;BME280;60683;51.730;8.762;2023-12-14T09:55:34;100469.03;;;3.19;100.00
72640;BME280;60683;51.730;8.762;2023-12-14T09:58:02;100462.19;;;3.25;100.00
72640;BME280;60683;51.730;8.762;2023-12-14T10:00:33;100477.66;;;3.21;100.00
72640;BME280;60683;51.730;8.762;2023-12-14T10:03:18;100476.78;;;3.29;100.00
72640;BME280;60683;51.730;8.762;2023-12-14T10:05:47;100477.47;;;3.23;100.00
72640;BME280;60683;51.730;8.762;2023-12-14T10:08:14;100475.75;;;3.30;100.00
72640;BME280;60683;51.730;8.762;2023-12-14T10:10:41;100479.31;;;3.22;100.00
72640;BME280;60683;51.730;8.762;2023-12-14T10:13:09;100488.28;;;3.21;100.00
72640;BME280;60683;51.730;8.762;2023-12-14T10:15:42;100486.97;;;3.17;100.00
72640;BME280;60683;51.730;8.762;2023-12-14T10:18:09;100488.88;;;3.31;100.00
72640;BME280;60683;51.730;8.762;2023-12-14T10:20:37;100496.06;;;3.23;100.00
72640;BME280;60683;51.730;8.762;2023-12-14T10:23:07;100494.06;;;3.25;100.00
72640;BME280;60683;51.730;8.762;2023-12-14T10:25:35;100499.09;;;3.20;100.00
72640;BME280;60683;51.730;8.762;2023-12-14T10:28:02;100502.09;;;3.17;100.00
72640;BME280;60683;51.730;8.762;2023-12-14T10:30:30;100510.34;;;3.22;100.00
72640;BME280;60683;51.730;8.762;2023-12-14T10:32:57;100519.03;;;3.16;100.00
72640;BME280;60683;51.730;8.762;2023-12-14T10:35:24;100532.66;;;3.13;100.00
72640;BME280;60683;51.730;8.762;2023-12-14T10:37:52;100527.34;;;3.13;100.00
72640;BME280;60683;51.730;8.762;2023-12-14T10:40:24;100536.81;;;3.15;100.00
72640;BME280;60683;51.730;8.762;2023-12-14T10:42:52;100542.59;;;3.19;100.00
72640;BME280;60683;51.730;8.762;2023-12-14T10:45:24;100539.47;;;3.15;100.00
72640;BME280;60683;51.730;8.762;2023-12-14T10:47:53;100535.81;;;3.16;100.00
72640;BME280;60683;51.730;8.762;2023-12-14T10:50:21;100534.03;;;3.09;100.00
72640;BME280;60683;51.730;8.762;2023-12-14T10:52:48;100537.63;;;3.16;100.00
72640;BME280;60683;51.730;8.762;2023-12-14T10:55:22;100534.97;;;3.16;100.00
72640;BME280;60683;51.730;8.762;2023-12-14T10:57:52;100536.88;;;3.07;100.00
72640;BME280;60683;51.730;8.762;2023-12-14T11:00:19;100545.66;;;3.08;100.00
72640;BME280;60683;51.730;8.762;2023-12-14T11:02:46;100546.16;;;3.11;100.00
72640;BME280;60683;51.730;8.762;2023-12-14T11:05:15;100553.16;;;3.04;100.00
72640;BME280;60683;51.730;8.762;2023-12-14T11:07:53;100560.25;;;3.12;100.00
72640;BME280;60683;51.730;8.762;2023-12-14T11:10:24;100572.25;;;3.08;100.00
72640;BME280;60683;51.730;8.762;2023-12-14T11:12:57;100569.63;;;2.99;100.00
72640;BME280;60683;51.730;8.762;2023-12-14T11:15:28;100576.44;;;2.94;100.00
72640;BME280;60683;51.730;8.762;2023-12-14T11:18:21;100575.94;;;2.98;100.00
72640;BME280;60683;51.730;8.762;2023-12-14T11:20:49;100568.13;;;2.97;100.00
72640;BME280;60683;51.730;8.762;2023-12-14T11:23:18;100576.59;;;3.01;100.00
72640;BME280;60683;51.730;8.762;2023-12-14T11:25:57;100577.91;;;3.05;100.00
72640;BME280;60683;51.730;8.762;2023-12-14T11:28:24;100587.69;;;3.04;100.00
72640;BME280;60683;51.730;8.762;2023-12-14T11:30:52;100590.88;;;2.99;100.00
72640;BME280;60683;51.730;8.762;2023-12-14T11:33:18;100593.53;;;2.99;100.00
72640;BME280;60683;51.730;8.762;2023-12-14T11:35:46;100592.38;;;2.94;100.00
72640;BME280;60683;51.730;8.762;2023-12-14T11:38:12;100597.22;;;2.90;100.00
72640;BME280;60683;51.730;8.762;2023-12-14T11:40:40;100604.50;;;2.96;100.00
72640;BME280;60683;51.730;8.762;2023-12-14T11:43:08;100602.16;;;3.02;100.00
72640;BME280;60683;51.730;8.762;2023-12-14T11:45:36;100609.41;;;3.08;100.00
72640;BME280;60683;51.730;8.762;2023-12-14T11:48:04;100617.22;;;3.09;100.00
72640;BME280;60683;51.730;8.762;2023-12-14T11:50:32;100612.72;;;3.10;100.00
72640;BME280;60683;51.730;8.762;2023-12-14T11:53:00;100620.69;;;3.10;100.00
72640;BME280;60683;51.730;8.762;2023-12-14T11:55:29;100617.22;;;3.09;100.00
72640;BME280;60683;51.730;8.762;2023-12-14T11:57:57;100624.13;;;3.18;100.00
72640;BME280;60683;51.730;8.762;2023-12-14T12:00:27;100619.47;;;3.20;100.00
72640;BME280;60683;51.730;8.762;2023-12-14T12:03:07;100620.94;;;3.23;100.00
72640;BME280;60683;51.730;8.762;2023-12-14T12:05:35;100621.28;;;3.20;100.00
72640;BME280;60683;51.730;8.762;2023-12-14T12:08:03;100633.75;;;3.19;100.00
72640;BME280;60683;51.730;8.762;2023-12-14T12:10:30;100621.47;;;3.18;100.00
72640;BME280;60683;51.730;8.762;2023-12-14T12:13:01;100636.88;;;3.23;100.00
72640;BME280;60683;51.730;8.762;2023-12-14T12:15:31;100632.25;;;3.17;100.00
72640;BME280;60683;51.730;8.762;2023-12-14T12:17:58;100637.91;;;3.14;100.00
72640;BME280;60683;51.730;8.762;2023-12-14T12:20:25;100638.75;;;3.14;100.00
72640;BME280;60683;51.730;8.762;2023-12-14T12:22:52;100641.41;;;3.14;100.00
72640;BME280;60683;51.730;8.762;2023-12-14T12:25:20;100642.41;;;3.13;100.00
72640;BME280;60683;51.730;8.762;2023-12-14T12:27:48;100644.91;;;3.15;100.00
72640;BME280;60683;51.730;8.762;2023-12-14T12:30:18;100652.25;;;3.05;100.00
72640;BME280;60683;51.730;8.762;2023-12-14T12:32:46;100654.25;;;3.11;100.00
72640;BME280;60683;51.730;8.762;2023-12-14T12:35:14;100650.69;;;3.18;100.00
72640;BME280;60683;51.730;8.762;2023-12-14T12:37:41;100652.88;;;3.15;100.00
72640;BME280;60683;51.730;8.762;2023-12-14T12:40:09;100662.16;;;3.19;100.00
72640;BME280;60683;51.730;8.762;2023-12-14T12:42:36;100652.50;;;3.18;100.00
72640;BME280;60683;51.730;8.762;2023-12-14T12:45:04;100654.66;;;3.22;100.00
72640;BME280;60683;51.730;8.762;2023-12-14T12:47:31;100666.13;;;3.23;100.00
72640;BME280;60683;51.730;8.762;2023-12-14T12:50:00;100665.81;;;3.18;100.00
72640;BME280;60683;51.730;8.762;2023-12-14T12:52:27;100668.13;;;3.21;100.00
72640;BME280;60683;51.730;8.762;2023-12-14T12:54:54;100680.06;;;3.25;100.00
72640;BME280;60683;51.730;8.762;2023-12-14T12:57:21;100680.19;;;3.31;100.00